Главная страница
METAR-TAF:

METAR-TAF

Аэропорты :

Военно-морская академия США

Аннаполис, Мэриленд, США

широта: 38-59-29N, долгота: 076-29-00W, высота над уровнем моря: 2 м

Текущие метеонаблюдения

Эта сводка был подготовлена 3 минут назад, в 09:17 UTC
Ветер 11 Узел от западно-северо-западный с порывами до 22 Узел
Температура 23°C
Влажность 94%
Давление 1017 hPa
Видимость: 2.8 км
Рассеянная облачность на высоте 1500 фута
Рассеянная облачность на высоте 3300 фута
Сплошная облачность на высоте 4700 фута
дождь, дымка

METAR: KNAK 060917Z AUTO 30011G22KT 1 3/4SM RA BR BKN015 BKN033 OVC047 23/22 A3004 RMK AO2 RAB02 P0011 T02330222

Время: 05:20 (09:20 UTC)


TAF: отсутствует

Метеонаблюдения и прогнозы для более 4000 аэропортов (сводки METAR и TAF).

Имеющиеся станции представлены на карте желтыми и красными точками.

Чтобы увидеть название станции, наведите на нее мышь.

Затем щелкните, чтобы увидеть метеонаблюдения и метеопрогнозы.

Управление картой: чтобы увеличить масштаб, щелкните зеленые кнопки с черным крестиком; чтобы уменьшить масштаб, щелкните зеленую кнопку с тире; для просмотра соседних карт щелкайте зеленые стрелки.


METAR-TAF: